Time;durP1;ratioP1;P1;durP2;ratioP2;P2;SDS_P1;SDS_P2;PMS_P1;PMS_P2;Temp;Humidity;BMP_temperature;BMP_pressure;BME280_temperature;BME280_humidity;BME280_pressure;Samples;Min_cycle;Max_cycle;Signal;HPM_P1;HPM_P2
2022/08/22 00:01:04;;;;;;;;;;;19.10;99.90;;;;;;5074655;28;19915;-79
2022/08/22 00:03:59;;;;;;;;;;;19.00;99.90;;;;;;5074713;28;19995;-81
2022/08/22 00:06:34;;;;;;;;;;;19.00;99.90;;;;;;5052833;28;19944;-80
2022/08/22 00:09:14;;;;;;;;;;;19.10;99.90;;;;;;5074452;28;19916;-80
2022/08/22 00:11:43;;;;;;;;;;;19.10;99.90;;;;;;5074622;28;19915;-81
2022/08/22 00:14:27;;;;;;;;;;;19.20;99.90;;;;;;5074312;28;19908;-80
2022/08/22 00:16:52;;;;;;;;;;;19.20;99.90;;;;;;5074670;28;20372;-81
2022/08/22 00:19:21;;;;;;;;;;;19.20;99.90;;;;;;5074419;28;19915;-80
2022/08/22 00:21:59;;;;;;;;;;;19.10;99.90;;;;;;5056274;28;20331;-80
2022/08/22 00:24:29;;;;;;;;;;;19.10;99.90;;;;;;5074072;28;19916;-81
2022/08/22 00:27:00;;;;;;;;;;;19.20;99.90;;;;;;5074905;28;19909;-81
2022/08/22 00:29:47;;;;;;;;;;;19.10;99.90;;;;;;5074074;28;20369;-81
2022/08/22 00:32:22;;;;;;;;;;;19.10;99.90;;;;;;5074344;28;19915;-79
2022/08/22 00:34:59;;;;;;;;;;;19.10;99.90;;;;;;5074273;28;20254;-80
2022/08/22 00:37:43;;;;;;;;;;;19.20;99.90;;;;;;5056012;28;19943;-82
2022/08/22 00:40:09;;;;;;;;;;;19.20;99.90;;;;;;5074068;28;20283;-79
2022/08/22 00:42:46;;;;;;;;;;;19.30;99.90;;;;;;5073984;28;20015;-81
2022/08/22 00:45:24;;;;;;;;;;;19.40;99.90;;;;;;5073899;28;19916;-80
2022/08/22 00:48:08;;;;;;;;;;;19.40;99.90;;;;;;5073330;28;19924;-79
2022/08/22 00:50:37;;;;;;;;;;;19.40;99.90;;;;;;5074485;28;20414;-79
2022/08/22 00:53:02;;;;;;;;;;;19.30;99.90;;;;;;5076522;28;19909;-82
2022/08/22 00:55:40;;;;;;;;;;;19.30;99.90;;;;;;5078094;28;19908;-81
2022/08/22 00:58:11;;;;;;;;;;;19.30;99.90;;;;;;5077946;28;19958;-80
2022/08/22 01:00:57;;;;;;;;;;;19.30;99.90;;;;;;5077943;28;19908;-81
2022/08/22 01:03:42;;;;;;;;;;;19.40;99.90;;;;;;5077319;28;19909;-82
2022/08/22 01:06:07;;;;;;;;;;;19.40;99.90;;;;;;5078274;28;20375;-81
2022/08/22 01:08:51;;;;;;;;;;;19.30;99.90;;;;;;5077814;28;19960;-82
2022/08/22 01:11:23;;;;;;;;;;;19.30;99.90;;;;;;5078364;28;19954;-81
2022/08/22 01:13:57;;;;;;;;;;;19.40;99.90;;;;;;5077590;28;19908;-79
2022/08/22 01:16:41;;;;;;;;;;;19.30;99.90;;;;;;5078168;28;19931;-79
2022/08/22 01:19:10;;;;;;;;;;;19.40;99.90;;;;;;5077419;28;19909;-81
2022/08/22 01:21:45;;;;;;;;;;;19.40;99.90;;;;;;5077831;28;20387;-79
2022/08/22 01:24:21;;;;;;;;;;;19.40;99.90;;;;;;5077592;28;19916;-81
2022/08/22 01:27:06;;;;;;;;;;;19.40;99.90;;;;;;5077468;28;19932;-79
2022/08/22 01:30:01;;;;;;;;;;;19.50;99.90;;;;;;5077265;28;19913;-79
2022/08/22 01:32:46;;;;;;;;;;;19.60;99.90;;;;;;5055213;28;19912;-80
2022/08/22 01:35:18;;;;;;;;;;;19.60;99.90;;;;;;5077184;28;19915;-79
2022/08/22 01:38:02;;;;;;;;;;;19.50;99.90;;;;;;5077312;28;20387;-81
2022/08/22 01:40:34;;;;;;;;;;;19.60;99.90;;;;;;5077494;28;20008;-81
2022/08/22 01:42:59;;;;;;;;;;;19.70;99.90;;;;;;5077368;28;19912;-81
2022/08/22 01:45:31;;;;;;;;;;;19.50;99.90;;;;;;5077706;28;19957;-81
2022/08/22 01:47:57;;;;;;;;;;;19.60;99.90;;;;;;5077025;28;19924;-80
2022/08/22 01:50:25;;;;;;;;;;;19.50;99.90;;;;;;5077711;28;19916;-81
2022/08/22 01:53:04;;;;;;;;;;;19.50;99.90;;;;;;5077483;28;19934;-80
2022/08/22 01:55:33;;;;;;;;;;;19.50;99.90;;;;;;5076809;28;19912;-80
2022/08/22 01:58:00;;;;;;;;;;;19.50;99.90;;;;;;5076670;28;20003;-80
2022/08/22 02:00:29;;;;;;;;;;;19.30;99.90;;;;;;5076982;28;19909;-81
2022/08/22 02:03:10;;;;;;;;;;;19.30;99.90;;;;;;5076679;28;19908;-82
2022/08/22 02:05:47;;;;;;;;;;;19.30;99.90;;;;;;5057631;28;20277;-82
2022/08/22 02:08:31;;;;;;;;;;;19.20;99.90;;;;;;5076365;28;20323;-80
2022/08/22 02:10:57;;;;;;;;;;;19.20;99.90;;;;;;5076306;28;19908;-80
2022/08/22 02:13:41;;;;;;;;;;;19.30;99.90;;;;;;5076479;28;20019;-81
2022/08/22 02:16:34;;;;;;;;;;;19.30;99.90;;;;;;5076365;28;20372;-81
2022/08/22 02:19:08;;;;;;;;;;;19.30;99.90;;;;;;5076385;28;19919;-80
2022/08/22 02:21:43;;;;;;;;;;;19.40;99.90;;;;;;5076149;28;19963;-82
2022/08/22 02:24:36;;;;;;;;;;;19.40;99.90;;;;;;5076089;28;20074;-81
2022/08/22 02:27:18;;;;;;;;;;;19.40;99.90;;;;;;5076132;28;19962;-80
2022/08/22 02:29:47;;;;;;;;;;;19.30;99.90;;;;;;5076250;28;19917;-79
2022/08/22 02:32:36;;;;;;;;;;;19.40;99.90;;;;;;5075954;28;19958;-81
2022/08/22 02:35:05;;;;;;;;;;;19.30;99.90;;;;;;5029420;28;19909;-81
2022/08/22 02:37:36;;;;;;;;;;;19.30;99.90;;;;;;5075888;28;19915;-80
2022/08/22 02:40:08;;;;;;;;;;;19.20;99.90;;;;;;5076082;28;19908;-81
2022/08/22 02:42:43;;;;;;;;;;;19.30;99.90;;;;;;5075859;28;19908;-81
2022/08/22 02:45:08;;;;;;;;;;;19.20;99.90;;;;;;5075790;28;19909;-82
2022/08/22 02:47:34;;;;;;;;;;;19.10;99.90;;;;;;5075659;28;20407;-81
2022/08/22 02:50:02;;;;;;;;;;;19.20;99.90;;;;;;5075839;28;19924;-80
2022/08/22 02:52:32;;;;;;;;;;;19.30;99.90;;;;;;5076101;28;19916;-80
2022/08/22 02:55:07;;;;;;;;;;;19.20;99.90;;;;;;5057527;28;19950;-82
2022/08/22 02:57:43;;;;;;;;;;;19.20;99.90;;;;;;5075786;28;19916;-80
2022/08/22 03:00:21;;;;;;;;;;;19.30;99.90;;;;;;5075949;28;20312;-81
2022/08/22 03:02:49;;;;;;;;;;;19.30;99.90;;;;;;5075467;28;20003;-81
2022/08/22 03:05:22;;;;;;;;;;;19.20;99.90;;;;;;5075313;28;19909;-81
2022/08/22 03:07:52;;;;;;;;;;;19.30;99.90;;;;;;5075197;28;19909;-81
2022/08/22 03:10:24;;;;;;;;;;;19.30;99.90;;;;;;5075379;28;20043;-82
2022/08/22 03:12:58;;;;;;;;;;;19.20;99.90;;;;;;5056913;28;20133;-80
2022/08/22 03:15:39;;;;;;;;;;;19.30;99.90;;;;;;5075179;28;19909;-81
2022/08/22 03:18:08;;;;;;;;;;;19.30;99.90;;;;;;5075085;28;19915;-82
2022/08/22 03:20:39;;;;;;;;;;;19.40;99.90;;;;;;5074971;28;20307;-80
2022/08/22 03:23:12;;;;;;;;;;;19.40;99.90;;;;;;5075012;28;20003;-81
2022/08/22 03:25:47;;;;;;;;;;;19.40;99.90;;;;;;5074988;28;19915;-81
2022/08/22 03:28:31;;;;;;;;;;;19.20;99.90;;;;;;5056767;28;20409;-80
2022/08/22 03:30:56;;;;;;;;;;;19.20;99.90;;;;;;5056848;28;19908;-81
2022/08/22 03:33:27;;;;;;;;;;;19.30;99.90;;;;;;5074739;28;19916;-81
2022/08/22 03:36:05;;;;;;;;;;;19.40;99.90;;;;;;5074681;28;19909;-81
2022/08/22 03:38:30;;;;;;;;;;;19.40;99.90;;;;;;5074941;28;19908;-80
2022/08/22 03:41:19;;;;;;;;;;;19.40;99.90;;;;;;5074598;28;19916;-81
2022/08/22 03:44:17;;;;;;;;;;;19.30;99.90;;;;;;5074490;28;20288;-80
2022/08/22 03:47:02;;;;;;;;;;;19.40;99.90;;;;;;5002320;28;19955;-80
2022/08/22 03:49:46;;;;;;;;;;;19.30;99.90;;;;;;5074524;28;20007;-81
2022/08/22 03:52:12;;;;;;;;;;;19.40;99.90;;;;;;5074894;28;20357;-81
2022/08/22 03:54:37;;;;;;;;;;;19.40;99.90;;;;;;5074319;28;19999;-81
2022/08/22 03:57:05;;;;;;;;;;;19.40;99.90;;;;;;5074296;28;19958;-82
2022/08/22 03:59:49;;;;;;;;;;;19.40;99.90;;;;;;5056270;28;20365;-82
2022/08/22 04:02:16;;;;;;;;;;;19.50;99.90;;;;;;5074198;28;20365;-81
2022/08/22 04:05:04;;;;;;;;;;;19.40;99.90;;;;;;5074172;28;19916;-81
2022/08/22 04:07:29;;;;;;;;;;;19.40;99.90;;;;;;5073438;28;19912;-80
2022/08/22 04:10:01;;;;;;;;;;;19.50;99.90;;;;;;5074172;28;20284;-81
2022/08/22 04:12:30;;;;;;;;;;;19.50;99.90;;;;;;5074421;28;20365;-81
2022/08/22 04:15:01;;;;;;;;;;;19.60;99.90;;;;;;5073960;28;19931;-81
2022/08/22 04:17:39;;;;;;;;;;;19.60;99.90;;;;;;5074003;28;19912;-80
2022/08/22 04:20:09;;;;;;;;;;;19.60;99.90;;;;;;5074224;28;19915;-80
2022/08/22 04:22:49;;;;;;;;;;;19.60;99.90;;;;;;5074112;28;20288;-80
2022/08/22 04:25:30;;;;;;;;;;;19.70;99.90;;;;;;5073870;28;20382;-81
2022/08/22 04:28:04;;;;;;;;;;;19.60;99.90;;;;;;5073471;28;19987;-81
2022/08/22 04:30:30;;;;;;;;;;;19.40;99.90;;;;;;5073864;28;19919;-80
2022/08/22 04:33:00;;;;;;;;;;;19.10;99.90;;;;;;5073841;28;19909;-80
2022/08/22 04:35:30;;;;;;;;;;;19.10;99.90;;;;;;5073845;28;20380;-81
2022/08/22 04:37:58;;;;;;;;;;;19.10;99.90;;;;;;5073775;28;19916;-80
2022/08/22 04:40:41;;;;;;;;;;;19.10;99.90;;;;;;5073699;28;19951;-79
2022/08/22 04:43:15;;;;;;;;;;;19.10;99.90;;;;;;5073889;28;19908;-80
2022/08/22 04:46:07;;;;;;;;;;;19.10;99.90;;;;;;5073770;28;19911;-81
2022/08/22 04:48:32;;;;;;;;;;;19.00;99.90;;;;;;5068568;28;19969;-81
2022/08/22 04:50:58;;;;;;;;;;;19.10;99.90;;;;;;5074302;28;20375;-79
2022/08/22 04:53:36;;;;;;;;;;;19.10;99.90;;;;;;5073555;28;19916;-80
2022/08/22 04:56:20;;;;;;;;;;;19.10;99.90;;;;;;5073673;28;19909;-80
2022/08/22 04:59:00;;;;;;;;;;;19.10;99.90;;;;;;5073781;28;19912;-81
2022/08/22 05:01:37;;;;;;;;;;;19.00;99.90;;;;;;5073787;28;19908;-80
2022/08/22 05:04:08;;;;;;;;;;;19.00;99.90;;;;;;5073638;28;19915;-81
2022/08/22 05:06:37;;;;;;;;;;;19.10;99.90;;;;;;5073454;28;20262;-81
2022/08/22 05:09:08;;;;;;;;;;;19.10;99.90;;;;;;5073343;28;19918;-79
2022/08/22 05:11:35;;;;;;;;;;;19.20;99.90;;;;;;5073680;28;19972;-81
2022/08/22 05:14:07;;;;;;;;;;;19.30;99.90;;;;;;5073336;28;19908;-81
2022/08/22 05:16:39;;;;;;;;;;;19.40;99.90;;;;;;5073361;28;19909;-80
2022/08/22 05:19:09;;;;;;;;;;;19.40;99.90;;;;;;5073474;28;20486;-80
2022/08/22 05:21:37;;;;;;;;;;;19.40;99.90;;;;;;5073483;28;20002;-81
2022/08/22 05:24:08;;;;;;;;;;;19.30;99.90;;;;;;5073304;28;19908;-78
2022/08/22 05:26:40;;;;;;;;;;;19.30;99.90;;;;;;5073272;28;19954;-79
2022/08/22 05:29:07;;;;;;;;;;;19.20;99.90;;;;;;5073417;28;19916;-81
2022/08/22 05:31:42;;;;;;;;;;;19.30;99.90;;;;;;5073217;28;19914;-80
2022/08/22 05:34:13;;;;;;;;;;;19.30;99.90;;;;;;5073275;28;20373;-80
2022/08/22 05:36:40;;;;;;;;;;;19.40;99.90;;;;;;5055149;28;19958;-81
2022/08/22 05:39:09;;;;;;;;;;;19.40;99.90;;;;;;5073691;28;19913;-80
2022/08/22 05:41:36;;;;;;;;;;;19.50;99.90;;;;;;5076992;28;19916;-81
2022/08/22 05:44:02;;;;;;;;;;;19.40;99.90;;;;;;5076768;28;19908;-80
2022/08/22 05:46:27;;;;;;;;;;;19.50;99.90;;;;;;5076534;28;19917;-80
2022/08/22 05:48:58;;;;;;;;;;;19.40;99.90;;;;;;5058703;28;19935;-81
2022/08/22 05:51:50;;;;;;;;;;;19.50;99.90;;;;;;5077391;28;19991;-83
2022/08/22 05:54:21;;;;;;;;;;;19.70;99.90;;;;;;5071752;28;19908;-80
2022/08/22 05:56:51;;;;;;;;;;;19.80;99.90;;;;;;5077083;28;19958;-79
2022/08/22 05:59:28;;;;;;;;;;;19.90;99.90;;;;;;5077134;28;19953;-80
2022/08/22 06:02:00;;;;;;;;;;;20.00;99.90;;;;;;5076473;28;19953;-79
2022/08/22 06:04:31;;;;;;;;;;;20.10;99.90;;;;;;5076665;28;19909;-81
2022/08/22 06:07:12;;;;;;;;;;;20.10;99.90;;;;;;5076610;28;19915;-81
2022/08/22 06:09:41;;;;;;;;;;;20.10;99.90;;;;;;5076429;28;20019;-79
2022/08/22 06:12:13;;;;;;;;;;;20.20;99.90;;;;;;5076344;28;19908;-81
2022/08/22 06:14:44;;;;;;;;;;;20.20;99.90;;;;;;5076214;28;19908;-80
2022/08/22 06:17:21;;;;;;;;;;;20.20;99.90;;;;;;5076160;28;19920;-81
2022/08/22 06:19:49;;;;;;;;;;;20.10;99.90;;;;;;5076301;28;19909;-80
2022/08/22 06:22:18;;;;;;;;;;;20.00;99.90;;;;;;5076164;28;19916;-79
2022/08/22 06:24:44;;;;;;;;;;;19.90;99.90;;;;;;5076047;28;20003;-80
2022/08/22 06:27:11;;;;;;;;;;;19.90;99.90;;;;;;5076068;28;19919;-81
2022/08/22 06:29:43;;;;;;;;;;;19.90;99.90;;;;;;5075947;28;20015;-81
2022/08/22 06:32:14;;;;;;;;;;;20.00;99.90;;;;;;5075924;28;19909;-80
2022/08/22 06:34:42;;;;;;;;;;;20.10;99.90;;;;;;5076005;28;20281;-81
2022/08/22 06:37:10;;;;;;;;;;;20.10;99.90;;;;;;5076471;28;19915;-80
2022/08/22 06:39:38;;;;;;;;;;;20.10;99.90;;;;;;5075814;28;19912;-80
2022/08/22 06:42:10;;;;;;;;;;;20.30;99.90;;;;;;5076052;28;19908;-80
2022/08/22 06:44:35;;;;;;;;;;;20.50;99.90;;;;;;5075724;28;19909;-81
2022/08/22 06:47:03;;;;;;;;;;;20.30;99.90;;;;;;5075436;28;20003;-81
2022/08/22 06:49:31;;;;;;;;;;;20.30;99.90;;;;;;5057580;28;19958;-81
2022/08/22 06:52:01;;;;;;;;;;;20.00;99.90;;;;;;5075707;28;19908;-80
2022/08/22 06:54:29;;;;;;;;;;;19.90;99.90;;;;;;5075554;28;19958;-79
2022/08/22 06:56:55;;;;;;;;;;;19.90;99.90;;;;;;5075413;28;19954;-81
2022/08/22 06:59:23;;;;;;;;;;;20.20;99.90;;;;;;5075430;28;19909;-80
2022/08/22 07:01:51;;;;;;;;;;;20.60;99.90;;;;;;5075538;28;19958;-81
2022/08/22 07:04:20;;;;;;;;;;;20.60;99.90;;;;;;5075340;28;20330;-81
2022/08/22 07:06:49;;;;;;;;;;;20.40;99.90;;;;;;5075373;28;20288;-80
2022/08/22 07:09:17;;;;;;;;;;;20.60;99.90;;;;;;5075115;28;20380;-80
2022/08/22 07:11:43;;;;;;;;;;;21.00;99.90;;;;;;5075148;28;19958;-81
2022/08/22 07:14:10;;;;;;;;;;;21.10;99.90;;;;;;5075525;28;19909;-80
2022/08/22 07:16:43;;;;;;;;;;;21.10;99.90;;;;;;5075284;28;19916;-80
2022/08/22 07:19:20;;;;;;;;;;;20.90;99.90;;;;;;5075114;28;20327;-79
2022/08/22 07:21:46;;;;;;;;;;;21.00;99.90;;;;;;5075415;28;19909;-81
2022/08/22 07:24:14;;;;;;;;;;;21.40;99.90;;;;;;5074945;28;20326;-81
2022/08/22 07:26:54;;;;;;;;;;;21.20;99.90;;;;;;5075148;28;19958;-80
2022/08/22 07:29:19;;;;;;;;;;;21.20;99.90;;;;;;5074849;28;20004;-81
2022/08/22 07:31:52;;;;;;;;;;;21.40;99.90;;;;;;5074795;28;19996;-82
2022/08/22 07:34:21;;;;;;;;;;;21.60;99.90;;;;;;5075012;28;19909;-79
2022/08/22 07:36:56;;;;;;;;;;;21.70;99.90;;;;;;5074726;28;20335;-81
2022/08/22 07:39:28;;;;;;;;;;;21.80;99.90;;;;;;5074632;28;19948;-80
2022/08/22 07:42:02;;;;;;;;;;;21.60;99.90;;;;;;5074928;28;19955;-80
2022/08/22 07:44:47;;;;;;;;;;;21.50;99.90;;;;;;5074544;28;20003;-79
2022/08/22 07:47:16;;;;;;;;;;;21.40;99.90;;;;;;5023186;28;19927;-80
2022/08/22 07:50:03;;;;;;;;;;;21.40;99.90;;;;;;5074459;28;19958;-81
2022/08/22 07:52:34;;;;;;;;;;;21.60;99.90;;;;;;5074907;28;20304;-81
2022/08/22 07:55:15;;;;;;;;;;;21.80;99.90;;;;;;5056254;28;19919;-82
2022/08/22 07:57:42;;;;;;;;;;;22.10;99.90;;;;;;5074566;28;20388;-82
2022/08/22 08:00:13;;;;;;;;;;;22.30;99.90;;;;;;5074407;28;19908;-82
2022/08/22 08:02:44;;;;;;;;;;;22.40;99.90;;;;;;5073610;28;19909;-80
2022/08/22 08:05:11;;;;;;;;;;;22.70;99.90;;;;;;5074692;28;19912;-79
2022/08/22 08:07:38;;;;;;;;;;;22.60;99.90;;;;;;5077476;28;19932;-81
2022/08/22 08:10:07;;;;;;;;;;;22.60;99.90;;;;;;5074241;28;19920;-80
2022/08/22 08:12:38;;;;;;;;;;;23.00;99.90;;;;;;5074085;28;19909;-81
2022/08/22 08:15:06;;;;;;;;;;;23.30;99.90;;;;;;5074328;28;19938;-82
2022/08/22 08:17:33;;;;;;;;;;;23.00;99.90;;;;;;5074183;28;19909;-80
2022/08/22 08:20:01;;;;;;;;;;;22.60;99.90;;;;;;5074677;28;19991;-80
2022/08/22 08:22:27;;;;;;;;;;;22.40;99.90;;;;;;5056096;28;20410;-80
2022/08/22 08:24:55;;;;;;;;;;;22.40;99.90;;;;;;5074204;28;19912;-81
2022/08/22 08:30:15;;;;;;;;;;;22.50;99.90;;;;;;5073879;28;20369;-80
2022/08/22 08:32:41;;;;;;;;;;;22.60;99.90;;;;;;5074013;28;20010;-80
2022/08/22 08:35:17;;;;;;;;;;;22.50;99.90;;;;;;5073915;28;19954;-82
2022/08/22 08:37:48;;;;;;;;;;;22.60;99.90;;;;;;5055708;28;19909;-82
2022/08/22 08:40:35;;;;;;;;;;;23.20;99.90;;;;;;5073966;28;19908;-82
2022/08/22 08:43:26;;;;;;;;;;;23.60;99.90;;;;;;5022775;28;19912;-81
2022/08/22 08:46:10;;;;;;;;;;;24.30;99.90;;;;;;5056033;28;19909;-81
2022/08/22 08:48:42;;;;;;;;;;;25.90;99.90;;;;;;5073814;28;19920;-80
2022/08/22 08:51:13;;;;;;;;;;;25.00;99.90;;;;;;5073965;28;19915;-81
2022/08/22 08:54:08;;;;;;;;;;;23.90;99.90;;;;;;5074505;28;19909;-81
2022/08/22 08:56:59;;;;;;;;;;;23.50;99.90;;;;;;5072848;28;20211;-81
2022/08/22 08:59:27;;;;;;;;;;;23.60;99.90;;;;;;5027253;28;20349;-81
2022/08/22 09:01:53;;;;;;;;;;;24.00;99.90;;;;;;5074042;28;19999;-81
2022/08/22 09:04:21;;;;;;;;;;;25.60;99.90;;;;;;5073721;28;20351;-82
2022/08/22 09:06:56;;;;;;;;;;;25.20;99.90;;;;;;5073841;28;19908;-82
2022/08/22 09:09:41;;;;;;;;;;;24.60;99.90;;;;;;5073773;28;19924;-80
2022/08/22 09:12:16;;;;;;;;;;;24.50;99.90;;;;;;5074651;28;19915;-82
2022/08/22 09:14:48;;;;;;;;;;;24.90;99.90;;;;;;5077378;28;20423;-82
2022/08/22 09:17:16;;;;;;;;;;;25.80;99.90;;;;;;5078100;28;20280;-83
2022/08/22 09:19:41;;;;;;;;;;;27.30;99.90;;;;;;5078052;28;19912;-80
2022/08/22 09:22:16;;;;;;;;;;;27.30;99.90;;;;;;5078237;28;20368;-80
2022/08/22 09:24:54;;;;;;;;;;;26.40;99.90;;;;;;5078214;28;19962;-81
2022/08/22 09:27:22;;;;;;;;;;;25.20;99.90;;;;;;5078395;28;19994;-82
2022/08/22 09:29:53;;;;;;;;;;;24.70;99.90;;;;;;5078541;28;20315;-82
2022/08/22 09:32:19;;;;;;;;;;;24.40;99.90;;;;;;5078207;28;19908;-82
2022/08/22 09:35:08;;;;;;;;;;;24.40;99.90;;;;;;5077994;28;20373;-82
2022/08/22 09:37:49;;;;;;;;;;;24.70;99.90;;;;;;5077994;28;19956;-80
2022/08/22 09:40:23;;;;;;;;;;;24.50;99.90;;;;;;5060012;28;19936;-82
2022/08/22 09:42:48;;;;;;;;;;;24.50;99.90;;;;;;5077781;28;19955;-81
2022/08/22 09:45:29;;;;;;;;;;;24.60;99.90;;;;;;5077744;28;20364;-82
2022/08/22 09:47:55;;;;;;;;;;;24.50;99.90;;;;;;5077335;28;20281;-79
2022/08/22 09:50:44;;;;;;;;;;;24.70;99.90;;;;;;5078118;28;19927;-81
2022/08/22 09:53:20;;;;;;;;;;;24.70;99.90;;;;;;5078085;28;20330;-80
2022/08/22 09:55:46;;;;;;;;;;;24.40;99.90;;;;;;5077932;28;19913;-80
2022/08/22 09:58:26;;;;;;;;;;;24.40;99.90;;;;;;5077654;28;19908;-81
2022/08/22 10:01:00;;;;;;;;;;;24.70;99.90;;;;;;5077606;28;20382;-82
2022/08/22 10:03:38;;;;;;;;;;;25.30;99.90;;;;;;5077652;28;19958;-81
2022/08/22 10:06:09;;;;;;;;;;;25.50;99.90;;;;;;5077596;28;19915;-80
2022/08/22 10:08:38;;;;;;;;;;;25.70;99.90;;;;;;5077397;28;19920;-81
2022/08/22 10:11:10;;;;;;;;;;;25.80;99.90;;;;;;5077428;28;19916;-81
2022/08/22 10:13:51;;;;;;;;;;;25.80;99.90;;;;;;5077514;28;19913;-81
2022/08/22 10:16:19;;;;;;;;;;;26.80;99.90;;;;;;5059406;28;19959;-81
2022/08/22 10:18:50;;;;;;;;;;;27.00;99.90;;;;;;5077175;28;19908;-83
2022/08/22 10:21:38;;;;;;;;;;;26.30;99.90;;;;;;5077138;28;19958;-77
2022/08/22 10:24:03;;;;;;;;;;;25.80;99.90;;;;;;5077192;28;19914;-80
2022/08/22 10:26:43;;;;;;;;;;;25.40;99.90;;;;;;5076132;28;20003;-83
2022/08/22 10:29:31;;;;;;;;;;;25.30;99.90;;;;;;5077340;28;20098;-81
2022/08/22 10:32:04;;;;;;;;;;;25.20;99.90;;;;;;5076692;28;19908;-80
2022/08/22 10:34:34;;;;;;;;;;;25.70;99.90;;;;;;5077411;28;19916;-83
2022/08/22 10:37:11;;;;;;;;;;;26.00;99.90;;;;;;5077026;28;19917;-81
2022/08/22 10:39:50;;;;;;;;;;;25.80;99.90;;;;;;5076998;28;20379;-81
2022/08/22 10:42:19;;;;;;;;;;;25.80;99.90;;;;;;5076831;28;19908;-81
2022/08/22 10:44:46;;;;;;;;;;;25.40;99.90;;;;;;5076690;28;19935;-80
2022/08/22 10:47:14;;;;;;;;;;;25.90;99.90;;;;;;5076332;28;19920;-78
2022/08/22 10:49:45;;;;;;;;;;;25.90;99.90;;;;;;5076602;28;19924;-80
2022/08/22 10:52:31;;;;;;;;;;;25.80;99.90;;;;;;5077209;28;19909;-81
2022/08/22 10:55:05;;;;;;;;;;;26.20;99.90;;;;;;5075427;28;19909;-78
2022/08/22 10:57:57;;;;;;;;;;;26.30;99.90;;;;;;5058551;28;19920;-78
2022/08/22 11:00:33;;;;;;;;;;;27.20;99.90;;;;;;5076459;28;19908;-79
2022/08/22 11:03:11;;;;;;;;;;;29.90;99.90;;;;;;5075724;28;19946;-79
2022/08/22 11:05:39;;;;;;;;;;;33.20;91.40;;;;;;5075546;28;19915;-81
2022/08/22 11:08:14;;;;;;;;;;;33.20;88.40;;;;;;5075320;28;19958;-79
2022/08/22 11:10:50;;;;;;;;;;;34.10;87.90;;;;;;5075201;28;19956;-81
2022/08/22 11:13:21;;;;;;;;;;;38.80;75.60;;;;;;5075314;28;19916;-83
2022/08/22 11:15:47;;;;;;;;;;;41.40;66.80;;;;;;5075237;28;19912;-81
2022/08/22 11:18:25;;;;;;;;;;;41.90;65.20;;;;;;5075040;28;19916;-81
2022/08/22 11:21:00;;;;;;;;;;;40.80;64.00;;;;;;5075345;28;19932;-79
2022/08/22 11:23:47;;;;;;;;;;;36.90;65.00;;;;;;5075182;28;20292;-81
2022/08/22 11:26:21;;;;;;;;;;;37.20;66.30;;;;;;5074814;28;19995;-82
2022/08/22 11:28:56;;;;;;;;;;;39.40;67.30;;;;;;5075021;28;19908;-81
2022/08/22 11:31:28;;;;;;;;;;;38.40;65.60;;;;;;5056909;28;19909;-81
2022/08/22 11:34:08;;;;;;;;;;;37.50;65.90;;;;;;5075070;28;20377;-79
2022/08/22 11:36:54;;;;;;;;;;;34.60;68.90;;;;;;5075071;28;19909;-81
2022/08/22 11:39:20;;;;;;;;;;;32.70;72.70;;;;;;5076355;28;19919;-79
2022/08/22 11:41:48;;;;;;;;;;;32.40;75.20;;;;;;5075921;28;20284;-80
2022/08/22 11:44:19;;;;;;;;;;;36.30;74.40;;;;;;5074496;28;19908;-82
2022/08/22 11:46:47;;;;;;;;;;;40.00;66.40;;;;;;5074699;28;19939;-81
2022/08/22 11:49:22;;;;;;;;;;;41.40;66.50;;;;;;5074496;28;19908;-81
2022/08/22 11:51:56;;;;;;;;;;;43.80;61.40;;;;;;5056584;28;20261;-84
2022/08/22 11:54:33;;;;;;;;;;;44.40;59.10;;;;;;5074962;28;19909;-82
2022/08/22 11:57:05;;;;;;;;;;;43.60;58.20;;;;;;5074695;28;19934;-81
2022/08/22 11:59:39;;;;;;;;;;;39.60;59.90;;;;;;5074541;28;19923;-81
2022/08/22 12:02:13;;;;;;;;;;;37.00;62.70;;;;;;5074441;28;19957;-82
2022/08/22 12:04:45;;;;;;;;;;;39.20;64.60;;;;;;5074600;28;19908;-82
2022/08/22 12:07:26;;;;;;;;;;;44.50;59.60;;;;;;5074300;28;19913;-81
2022/08/22 12:09:54;;;;;;;;;;;41.40;58.20;;;;;;5074572;28;19920;-82
2022/08/22 12:12:35;;;;;;;;;;;42.10;60.30;;;;;;5075120;28;20073;-83
2022/08/22 12:15:30;;;;;;;;;;;45.00;58.00;;;;;;5075683;28;19912;-83
2022/08/22 12:18:14;;;;;;;;;;;46.50;54.50;;;;;;4987027;28;19910;-82
2022/08/22 12:20:55;;;;;;;;;;;46.80;54.00;;;;;;5076324;28;19958;-83
2022/08/22 12:23:30;;;;;;;;;;;42.60;55.20;;;;;;5076447;28;19912;-81
2022/08/22 12:26:08;;;;;;;;;;;38.70;58.50;;;;;;5075249;28;19908;-79
2022/08/22 12:28:56;;;;;;;;;;;37.70;62.20;;;;;;5074307;28;19916;-83
2022/08/22 12:31:40;;;;;;;;;;;41.50;59.60;;;;;;5074058;28;19909;-83
2022/08/22 12:34:06;;;;;;;;;;;42.90;56.40;;;;;;5073811;28;19958;-81
2022/08/22 12:36:41;;;;;;;;;;;40.50;57.50;;;;;;5073841;28;19908;-82
2022/08/22 12:39:06;;;;;;;;;;;40.10;58.90;;;;;;5073838;28;19919;-82
2022/08/22 12:41:40;;;;;;;;;;;41.10;57.90;;;;;;5073705;28;19909;-81
2022/08/22 12:44:14;;;;;;;;;;;41.30;57.20;;;;;;5073638;28;19918;-83
2022/08/22 12:46:42;;;;;;;;;;;39.30;58.50;;;;;;5073423;28;19924;-82
2022/08/22 12:49:07;;;;;;;;;;;38.20;60.00;;;;;;5055399;28;19908;-81
2022/08/22 12:51:49;;;;;;;;;;;37.40;61.20;;;;;;5074352;28;19916;-80
2022/08/22 12:54:24;;;;;;;;;;;37.20;61.20;;;;;;5075040;28;19909;-80
2022/08/22 12:56:49;;;;;;;;;;;35.90;62.50;;;;;;5075248;28;19909;-80
2022/08/22 12:59:33;;;;;;;;;;;35.70;63.70;;;;;;5074720;28;20003;-79
2022/08/22 13:02:00;;;;;;;;;;;35.70;64.00;;;;;;5075821;28;20398;-82
2022/08/22 13:04:27;;;;;;;;;;;35.50;63.90;;;;;;5076262;28;19908;-81
2022/08/22 13:07:16;;;;;;;;;;;34.40;63.80;;;;;;5076927;28;20394;-80
2022/08/22 13:09:47;;;;;;;;;;;34.20;65.30;;;;;;5075906;28;19908;-81
2022/08/22 13:12:21;;;;;;;;;;;34.00;64.90;;;;;;5076934;28;19944;-81
2022/08/22 13:14:51;;;;;;;;;;;33.40;66.20;;;;;;5076332;28;19909;-80
2022/08/22 13:17:18;;;;;;;;;;;32.40;67.40;;;;;;5077339;28;19909;-80
2022/08/22 13:20:04;;;;;;;;;;;31.50;69.60;;;;;;5076861;28;19912;-80
2022/08/22 13:22:32;;;;;;;;;;;30.90;71.30;;;;;;5076554;28;19916;-79
2022/08/22 13:25:15;;;;;;;;;;;30.60;72.70;;;;;;5076670;28;19908;-79
2022/08/22 13:27:42;;;;;;;;;;;30.60;73.40;;;;;;5077490;28;19919;-79
2022/08/22 13:30:12;;;;;;;;;;;30.40;74.70;;;;;;5077625;28;19942;-80
2022/08/22 13:32:44;;;;;;;;;;;30.60;74.30;;;;;;5077023;28;19908;-80
2022/08/22 13:35:16;;;;;;;;;;;30.60;73.70;;;;;;5076844;28;19991;-81
2022/08/22 13:37:43;;;;;;;;;;;31.10;74.10;;;;;;5076533;28;19982;-80
2022/08/22 13:40:11;;;;;;;;;;;31.40;73.60;;;;;;5076398;28;19912;-80
2022/08/22 13:42:45;;;;;;;;;;;31.50;73.80;;;;;;5076604;28;20449;-79
2022/08/22 13:45:14;;;;;;;;;;;31.10;74.10;;;;;;5076373;28;19939;-80
2022/08/22 13:47:46;;;;;;;;;;;31.00;74.90;;;;;;5075883;28;19920;-78
2022/08/22 13:50:15;;;;;;;;;;;31.00;76.00;;;;;;5058114;28;20011;-79
2022/08/22 13:52:44;;;;;;;;;;;31.60;75.80;;;;;;5076569;28;19900;-79
2022/08/22 13:55:16;;;;;;;;;;;30.80;76.50;;;;;;5075973;28;19916;-78
2022/08/22 13:57:51;;;;;;;;;;;30.40;77.40;;;;;;5076278;28;19958;-79
2022/08/22 14:00:28;;;;;;;;;;;30.50;78.00;;;;;;5076511;28;19913;-78
2022/08/22 14:03:00;;;;;;;;;;;30.40;78.50;;;;;;5079154;28;20368;-81
2022/08/22 14:05:37;;;;;;;;;;;30.80;78.00;;;;;;5079553;28;19908;-79
2022/08/22 14:08:16;;;;;;;;;;;31.30;77.30;;;;;;5079699;28;19908;-79
2022/08/22 14:11:00;;;;;;;;;;;31.00;78.50;;;;;;5079464;28;20440;-78
2022/08/22 14:14:01;;;;;;;;;;;30.20;79.60;;;;;;5079345;28;19983;-79
2022/08/22 14:16:31;;;;;;;;;;;30.00;81.30;;;;;;4978211;28;20009;-78
2022/08/22 14:18:57;;;;;;;;;;;29.80;82.00;;;;;;5060795;28;19935;-80
2022/08/22 14:21:29;;;;;;;;;;;30.00;82.70;;;;;;5079178;28;19908;-78
2022/08/22 14:24:18;;;;;;;;;;;29.40;84.10;;;;;;5078436;28;19956;-79
2022/08/22 14:26:55;;;;;;;;;;;29.10;85.80;;;;;;5032239;28;19953;-79
2022/08/22 14:29:23;;;;;;;;;;;29.00;86.90;;;;;;5060870;28;19994;-80
2022/08/22 14:32:04;;;;;;;;;;;28.40;90.00;;;;;;5078593;28;19915;-78
2022/08/22 14:34:31;;;;;;;;;;;28.10;92.10;;;;;;5078837;28;19909;-79
2022/08/22 14:37:07;;;;;;;;;;;28.10;92.60;;;;;;5078678;28;20288;-78
2022/08/22 14:39:41;;;;;;;;;;;28.00;93.10;;;;;;5060454;28;19912;-79
2022/08/22 14:42:16;;;;;;;;;;;28.00;93.90;;;;;;5078827;28;19916;-78
2022/08/22 14:45:00;;;;;;;;;;;28.10;94.50;;;;;;5077699;28;20003;-79
2022/08/22 14:47:33;;;;;;;;;;;27.90;95.50;;;;;;5077848;28;19928;-79
2022/08/22 14:50:01;;;;;;;;;;;27.90;95.90;;;;;;5078343;28;19912;-80
2022/08/22 14:52:32;;;;;;;;;;;27.60;97.10;;;;;;5078207;28;19908;-78
2022/08/22 14:55:10;;;;;;;;;;;27.40;98.80;;;;;;5078355;28;20403;-82
2022/08/22 14:57:40;;;;;;;;;;;27.20;99.90;;;;;;5077860;28;20434;-81